Time;durP1;ratioP1;P1;durP2;ratioP2;P2;SDS_P1;SDS_P2;PMS_P1;PMS_P2;Temp;Humidity;BMP_temperature;BMP_pressure;BME280_temperature;BME280_humidity;BME280_pressure;Samples;Min_cycle;Max_cycle;Signal;HPM_P1;HPM_P2
2021/04/26 00:01:36;;;;;;;2.40;1.13;;;5.20;99.90;;;;;;4975846;28;20709;-48
2021/04/26 00:04:07;;;;;;;2.40;1.50;;;5.30;99.90;;;;;;4969371;28;20616;-48
2021/04/26 00:06:35;;;;;;;1.70;1.07;;;5.30;99.90;;;;;;4960911;28;20231;-48
2021/04/26 00:09:04;;;;;;;1.70;1.10;;;5.30;99.90;;;;;;4956998;28;20305;-48
2021/04/26 00:11:31;;;;;;;3.43;1.30;;;5.30;99.90;;;;;;4960150;28;20301;-48
2021/04/26 00:13:58;;;;;;;3.33;1.40;;;5.30;99.90;;;;;;4968594;28;20242;-48
2021/04/26 00:16:26;;;;;;;1.77;1.10;;;5.20;99.90;;;;;;4968808;28;20328;-49
2021/04/26 00:18:53;;;;;;;5.20;1.40;;;5.20;99.90;;;;;;4969346;28;20713;-49
2021/04/26 00:21:22;;;;;;;3.17;1.13;;;5.10;99.90;;;;;;4968427;28;20274;-49
2021/04/26 00:23:49;;;;;;;2.53;1.10;;;5.00;99.90;;;;;;4969033;28;20289;-48
2021/04/26 00:26:17;;;;;;;1.77;1.10;;;5.00;99.90;;;;;;4968864;28;20325;-48
2021/04/26 00:28:44;;;;;;;2.80;1.23;;;4.90;99.90;;;;;;4969180;28;20246;-48
2021/04/26 00:31:12;;;;;;;3.73;1.30;;;4.90;99.90;;;;;;4977668;28;20248;-48
2021/04/26 00:33:39;;;;;;;2.07;1.20;;;4.90;99.90;;;;;;4988590;28;20242;-48
2021/04/26 00:36:07;;;;;;;2.17;1.27;;;4.90;99.90;;;;;;4988189;28;20642;-48
2021/04/26 00:38:35;;;;;;;1.40;1.07;;;4.90;99.90;;;;;;4988819;28;20252;-48
2021/04/26 00:41:02;;;;;;;3.73;1.20;;;4.80;99.90;;;;;;4987773;28;20247;-48
2021/04/26 00:43:30;;;;;;;3.03;1.30;;;4.90;99.90;;;;;;4988086;28;20242;-48
2021/04/26 00:45:57;;;;;;;1.33;1.10;;;4.80;99.90;;;;;;4988219;28;20464;-48
2021/04/26 00:48:25;;;;;;;5.13;1.20;;;4.80;99.90;;;;;;4987926;28;20246;-48
2021/04/26 00:50:52;;;;;;;2.03;1.23;;;4.80;99.90;;;;;;4987651;28;20230;-48
2021/04/26 00:53:19;;;;;;;1.50;1.10;;;4.80;99.90;;;;;;4987928;28;20253;-48
2021/04/26 00:55:48;;;;;;;3.27;1.10;;;4.90;99.90;;;;;;4991567;28;20275;-48
2021/04/26 00:58:16;;;;;;;1.20;0.90;;;4.90;99.90;;;;;;4989957;28;20713;-48
2021/04/26 01:00:43;;;;;;;2.00;1.10;;;4.80;99.90;;;;;;4985666;28;20336;-48
2021/04/26 01:03:11;;;;;;;3.10;1.20;;;4.70;99.90;;;;;;4969193;28;20238;-48
2021/04/26 01:05:39;;;;;;;3.07;1.40;;;4.70;99.90;;;;;;4960840;28;20235;-48
2021/04/26 01:08:07;;;;;;;2.80;1.40;;;4.60;99.90;;;;;;4975560;28;20250;-48
2021/04/26 01:10:59;;;;;;;2.80;1.30;;;4.50;99.90;;;;;;4969079;28;20710;-48
2021/04/26 01:13:57;;;;;;;2.10;1.17;;;4.50;99.90;;;;;;4958324;28;20254;-48
2021/04/26 01:16:34;;;;;;;2.30;1.40;;;4.40;99.90;;;;;;4950725;28;21345;-48
2021/04/26 01:19:10;;;;;;;2.73;1.20;;;4.50;99.90;;;;;;4967766;28;20242;-48
2021/04/26 01:22:21;;;;;;;3.00;1.30;;;4.50;99.90;;;;;;4952285;28;20234;-47
2021/04/26 01:25:00;;;;;;;2.00;1.10;;;4.60;99.90;;;;;;4952400;28;20262;-47
2021/04/26 01:28:04;;;;;;;2.97;1.40;;;4.50;99.90;;;;;;4950666;28;20242;-48
2021/04/26 01:30:40;;;;;;;3.33;1.40;;;4.60;99.90;;;;;;4950380;28;20330;-48
2021/04/26 01:33:19;;;;;;;2.47;1.27;;;4.50;99.90;;;;;;4972541;28;20265;-48
2021/04/26 01:35:56;;;;;;;3.43;1.20;;;4.40;99.90;;;;;;4986327;28;20234;-48
2021/04/26 01:38:28;;;;;;;2.67;1.33;;;4.30;99.90;;;;;;4986236;28;20350;-48
2021/04/26 01:40:58;;;;;;;3.90;1.20;;;4.50;99.90;;;;;;4951336;28;20714;-48
2021/04/26 01:43:28;;;;;;;1.93;1.27;;;4.40;99.90;;;;;;4967076;28;20669;-48
2021/04/26 01:46:00;;;;;;;1.70;1.20;;;4.30;99.90;;;;;;4953023;28;20238;-48
2021/04/26 01:48:34;;;;;;;2.70;1.20;;;4.30;99.90;;;;;;4950985;28;20660;-48
2021/04/26 01:51:06;;;;;;;4.97;1.40;;;4.40;99.90;;;;;;4969458;28;20289;-48
2021/04/26 01:53:34;;;;;;;1.77;1.13;;;4.30;99.90;;;;;;4969855;28;20321;-48
2021/04/26 01:56:06;;;;;;;4.10;1.40;;;4.20;99.90;;;;;;4971218;28;20297;-48
2021/04/26 01:58:47;;;;;;;2.40;1.50;;;4.20;99.90;;;;;;4978935;28;20731;-48
2021/04/26 02:01:17;;;;;;;3.13;1.60;;;4.10;99.90;;;;;;4984186;28;20238;-48
2021/04/26 02:03:51;;;;;;;2.03;1.43;;;4.30;99.90;;;;;;4964797;28;21064;-48
2021/04/26 02:07:00;;;;;;;1.57;1.37;;;4.10;99.90;;;;;;4979662;28;20241;-48
2021/04/26 02:09:31;;;;;;;3.57;1.50;;;4.20;99.90;;;;;;4987511;28;20979;-48
2021/04/26 02:12:07;;;;;;;3.83;1.57;;;4.10;99.90;;;;;;4969100;28;20265;-48
2021/04/26 02:14:42;;;;;;;2.97;1.30;;;4.20;99.90;;;;;;4970732;28;20296;-48
2021/04/26 02:17:09;;;;;;;2.97;1.70;;;4.10;99.90;;;;;;4985328;28;20297;-48
2021/04/26 02:19:40;;;;;;;3.17;1.50;;;4.00;99.90;;;;;;4969597;28;20238;-48
2021/04/26 02:22:07;;;;;;;3.13;1.70;;;4.10;99.90;;;;;;4969584;28;20481;-48
2021/04/26 02:24:53;;;;;;;2.73;1.20;;;3.90;99.90;;;;;;4970956;28;20238;-48
2021/04/26 02:27:21;;;;;;;3.33;1.50;;;3.80;99.90;;;;;;4969275;28;20316;-49
2021/04/26 02:29:51;;;;;;;3.10;1.40;;;3.70;99.90;;;;;;4968918;28;20714;-48
2021/04/26 02:32:27;;;;;;;2.83;1.50;;;3.60;99.90;;;;;;4986728;28;20706;-48
2021/04/26 02:35:27;;;;;;;3.23;1.10;;;3.60;99.90;;;;;;4983920;28;20233;-48
2021/04/26 02:37:59;;;;;;;4.80;1.40;;;3.70;99.90;;;;;;5002942;28;20325;-48
2021/04/26 02:40:32;;;;;;;2.67;1.70;;;3.90;99.90;;;;;;5000067;28;20248;-48
2021/04/26 02:43:00;;;;;;;1.60;1.50;;;3.80;99.90;;;;;;4981361;28;20233;-48
2021/04/26 02:45:35;;;;;;;3.20;1.50;;;3.80;99.90;;;;;;4968633;28;20540;-49
2021/04/26 02:48:03;;;;;;;2.60;1.80;;;3.70;99.90;;;;;;4985627;28;20252;-48
2021/04/26 02:50:36;;;;;;;2.50;1.50;;;3.70;99.90;;;;;;4968523;28;20484;-48
2021/04/26 02:53:12;;;;;;;5.63;1.73;;;3.60;99.90;;;;;;4985240;28;20480;-48
2021/04/26 02:55:42;;;;;;;2.77;1.80;;;3.60;99.90;;;;;;4984472;28;20244;-48
2021/04/26 02:58:11;;;;;;;3.43;1.40;;;3.90;99.90;;;;;;4971775;28;20710;-48
2021/04/26 03:00:38;;;;;;;6.03;1.77;;;3.60;99.90;;;;;;4986484;28;20287;-48
2021/04/26 03:03:23;;;;;;;3.33;1.53;;;3.70;99.90;;;;;;4996521;28;20814;-47
2021/04/26 03:05:54;;;;;;;4.97;1.57;;;3.60;99.90;;;;;;4983142;28;20236;-48
2021/04/26 03:08:22;;;;;;;3.70;1.57;;;3.60;99.90;;;;;;4988879;28;20244;-48
2021/04/26 03:10:50;;;;;;;2.00;1.57;;;3.60;99.90;;;;;;5003834;28;20238;-48
2021/04/26 03:13:18;;;;;;;4.97;1.83;;;3.60;99.90;;;;;;5003859;28;20297;-48
2021/04/26 03:15:46;;;;;;;3.47;1.60;;;3.70;99.90;;;;;;5002417;28;20241;-48
2021/04/26 03:18:15;;;;;;;3.80;1.90;;;3.80;99.90;;;;;;4970283;28;20677;-48
2021/04/26 03:20:44;;;;;;;3.10;1.80;;;3.70;99.90;;;;;;4983697;28;20619;-48
2021/04/26 03:23:19;;;;;;;3.10;1.67;;;3.70;99.90;;;;;;4970085;28;20289;-48
2021/04/26 03:25:47;;;;;;;3.13;1.60;;;3.80;99.90;;;;;;4971888;28;20274;-48
2021/04/26 03:28:17;;;;;;;4.73;2.00;;;3.80;99.90;;;;;;4969772;28;20241;-48
2021/04/26 03:30:46;;;;;;;4.53;1.83;;;3.90;99.90;;;;;;4962837;28;20451;-48
2021/04/26 03:33:37;;;;;;;3.30;1.50;;;3.90;99.90;;;;;;4964878;28;20236;-48
2021/04/26 03:36:08;;;;;;;9.20;1.83;;;3.80;99.90;;;;;;4950639;28;20298;-48
2021/04/26 03:38:37;;;;;;;3.37;1.93;;;3.90;99.90;;;;;;4984549;28;20311;-48
2021/04/26 03:41:07;;;;;;;5.07;1.83;;;3.80;99.90;;;;;;4968928;28;20740;-48
2021/04/26 03:43:34;;;;;;;3.23;1.80;;;3.70;99.90;;;;;;4952377;28;20572;-48
2021/04/26 03:46:08;;;;;;;2.60;1.60;;;3.70;99.90;;;;;;4954535;28;20248;-48
2021/04/26 03:49:04;;;;;;;5.53;1.73;;;3.60;99.90;;;;;;4950101;28;20334;-48
2021/04/26 03:52:10;;;;;;;2.53;1.83;;;3.60;99.90;;;;;;5005351;28;20611;-48
2021/04/26 03:54:58;;;;;;;4.53;2.10;;;3.70;99.90;;;;;;5019490;28;20236;-48
2021/04/26 03:57:26;;;;;;;4.13;2.30;;;3.90;99.90;;;;;;4994758;28;20857;-48
2021/04/26 03:59:53;;;;;;;4.23;1.90;;;3.50;99.90;;;;;;4996635;28;20480;-48
2021/04/26 04:02:21;;;;;;;5.73;2.00;;;3.40;99.90;;;;;;4961291;28;20254;-48
2021/04/26 04:04:51;;;;;;;3.33;2.00;;;3.40;99.90;;;;;;4992155;28;20287;-48
2021/04/26 04:07:53;;;;;;;2.27;1.97;;;3.40;99.90;;;;;;5003544;28;20246;-48
2021/04/26 04:10:40;;;;;;;5.50;2.40;;;3.30;99.90;;;;;;4987379;28;20840;-48
2021/04/26 04:13:26;;;;;;;6.50;3.53;;;3.30;99.90;;;;;;4988225;28;20304;-48
2021/04/26 04:15:53;;;;;;;4.30;2.90;;;3.30;99.90;;;;;;4986639;28;20248;-48
2021/04/26 04:18:24;;;;;;;7.07;2.60;;;3.20;99.90;;;;;;4986994;28;20320;-48
2021/04/26 04:20:53;;;;;;;2.77;2.20;;;3.20;99.90;;;;;;4986320;28;20241;-48
2021/04/26 04:23:21;;;;;;;3.57;2.20;;;3.20;99.90;;;;;;4987215;28;20248;-49
2021/04/26 04:25:49;;;;;;;4.80;2.63;;;3.20;99.90;;;;;;4987858;28;20242;-48
2021/04/26 04:28:17;;;;;;;4.77;2.97;;;3.10;99.90;;;;;;4989749;28;20680;-48
2021/04/26 04:30:46;;;;;;;5.47;3.03;;;3.20;99.90;;;;;;4984646;28;20240;-48
2021/04/26 04:33:52;;;;;;;5.40;3.40;;;3.40;99.90;;;;;;4973083;28;20332;-48
2021/04/26 04:36:39;;;;;;;4.63;2.70;;;3.30;99.90;;;;;;4972617;28;20483;-48
2021/04/26 04:39:25;;;;;;;4.47;2.33;;;3.20;99.90;;;;;;4972567;28;20274;-48
2021/04/26 04:42:22;;;;;;;4.60;2.90;;;3.30;99.90;;;;;;4965663;28;20301;-48
2021/04/26 04:44:50;;;;;;;10.83;3.23;;;3.30;99.90;;;;;;4951768;28;20887;-48
2021/04/26 04:47:17;;;;;;;6.47;3.30;;;3.60;99.90;;;;;;4972040;28;20500;-47
2021/04/26 04:49:45;;;;;;;6.17;3.50;;;3.40;99.90;;;;;;4972426;28;20267;-49
2021/04/26 04:52:12;;;;;;;11.57;3.37;;;3.40;99.90;;;;;;4989651;28;20241;-48
2021/04/26 04:54:41;;;;;;;9.33;3.90;;;3.60;99.90;;;;;;4985601;28;20648;-48
2021/04/26 04:57:09;;;;;;;8.47;4.63;;;3.70;99.90;;;;;;5002951;28;20501;-48
2021/04/26 04:59:41;;;;;;;9.77;4.83;;;3.70;99.90;;;;;;5017479;28;20229;-48
2021/04/26 05:02:27;;;;;;;6.30;3.77;;;3.80;99.90;;;;;;4996779;28;20271;-48
2021/04/26 05:05:13;;;;;;;7.40;3.97;;;4.10;99.90;;;;;;4981395;28;20552;-48
2021/04/26 05:08:00;;;;;;;8.57;3.73;;;4.20;99.90;;;;;;4979876;28;20838;-48
2021/04/26 05:10:45;;;;;;;8.00;3.87;;;4.20;99.90;;;;;;4971611;28;20244;-48
2021/04/26 05:13:19;;;;;;;5.90;3.57;;;4.20;99.90;;;;;;4985268;28;20716;-48
2021/04/26 05:15:57;;;;;;;7.50;3.43;;;4.20;99.90;;;;;;5006076;28;20233;-48
2021/04/26 05:18:25;;;;;;;9.23;4.13;;;4.20;99.90;;;;;;4977402;28;20234;-48
2021/04/26 05:20:53;;;;;;;7.70;3.73;;;4.40;99.90;;;;;;4975356;28;20582;-48
2021/04/26 05:23:21;;;;;;;4.90;3.07;;;4.40;99.90;;;;;;4980299;28;20241;-48
2021/04/26 05:25:51;;;;;;;4.90;2.50;;;4.40;99.90;;;;;;4972406;28;20238;-48
2021/04/26 05:28:20;;;;;;;4.50;2.27;;;4.30;99.90;;;;;;4985015;28;20237;-49
2021/04/26 05:30:53;;;;;;;4.83;2.30;;;4.30;99.90;;;;;;4982354;28;20718;-48
2021/04/26 05:33:22;;;;;;;3.77;2.00;;;4.50;99.90;;;;;;4986395;28;20466;-49
2021/04/26 05:35:56;;;;;;;3.17;2.00;;;4.70;99.90;;;;;;4963459;28;20235;-47
2021/04/26 05:38:33;;;;;;;3.60;2.00;;;4.80;99.90;;;;;;4960827;28;20248;-48
2021/04/26 05:41:05;;;;;;;2.80;2.07;;;5.10;99.90;;;;;;4953073;28;20243;-48
2021/04/26 05:43:33;;;;;;;4.43;2.10;;;5.30;99.90;;;;;;4956729;28;20234;-48
2021/04/26 05:46:00;;;;;;;4.33;2.20;;;5.40;99.90;;;;;;4949600;28;20695;-48
2021/04/26 05:48:32;;;;;;;3.37;2.13;;;5.50;99.90;;;;;;4950046;28;20242;-48
2021/04/26 05:50:59;;;;;;;4.07;2.40;;;5.60;99.90;;;;;;4951646;28;20289;-49
2021/04/26 05:53:27;;;;;;;3.73;2.20;;;5.80;99.90;;;;;;4960017;28;20233;-48
2021/04/26 05:55:54;;;;;;;4.67;2.30;;;6.00;99.90;;;;;;4958437;28;20241;-48
2021/04/26 05:58:21;;;;;;;3.07;2.13;;;6.00;99.90;;;;;;4963014;28;20722;-48
2021/04/26 06:00:49;;;;;;;4.57;2.13;;;6.10;99.90;;;;;;4974320;28;20233;-48
2021/04/26 06:03:16;;;;;;;3.93;1.90;;;6.20;99.90;;;;;;4990839;28;20245;-48
2021/04/26 06:05:44;;;;;;;3.53;2.53;;;6.30;99.90;;;;;;4981365;28;20230;-48
2021/04/26 06:08:17;;;;;;;3.93;2.13;;;6.50;99.90;;;;;;4989177;28;20261;-48
2021/04/26 06:10:44;;;;;;;3.03;2.33;;;6.60;99.90;;;;;;4979734;28;20337;-48
2021/04/26 06:13:12;;;;;;;3.97;1.77;;;6.80;99.90;;;;;;4980676;28;20246;-50
2021/04/26 06:15:39;;;;;;;3.37;2.17;;;7.00;99.90;;;;;;4972884;28;20235;-48
2021/04/26 06:18:12;;;;;;;2.93;1.80;;;7.10;99.90;;;;;;4970749;28;20242;-48
2021/04/26 06:20:40;;;;;;;2.87;2.00;;;7.40;99.90;;;;;;4972005;28;20238;-48
2021/04/26 06:23:08;;;;;;;3.93;1.93;;;7.60;99.90;;;;;;4973424;28;20242;-48
2021/04/26 06:25:37;;;;;;;3.13;2.13;;;7.80;99.90;;;;;;4970520;28;20234;-48
2021/04/26 06:28:05;;;;;;;3.13;2.00;;;8.00;99.90;;;;;;4970242;28;20234;-48
2021/04/26 06:30:33;;;;;;;4.00;1.77;;;8.20;99.90;;;;;;4969614;28;20234;-48
2021/04/26 06:33:00;;;;;;;3.97;2.50;;;8.50;99.90;;;;;;4975125;28;22503;-48
2021/04/26 06:35:28;;;;;;;3.60;1.77;;;8.50;99.90;;;;;;4989733;28;20246;-48
2021/04/26 06:37:56;;;;;;;4.50;2.10;;;8.70;99.90;;;;;;4978378;28;20562;-48
2021/04/26 06:40:24;;;;;;;3.93;2.20;;;8.80;99.90;;;;;;4974955;28;20653;-49
2021/04/26 06:42:52;;;;;;;4.63;2.17;;;9.20;99.90;;;;;;4987698;28;20239;-48
2021/04/26 06:45:21;;;;;;;4.33;2.20;;;9.40;99.90;;;;;;4989476;28;20238;-49
2021/04/26 06:47:49;;;;;;;3.40;2.30;;;9.50;99.90;;;;;;4985828;28;20617;-48
2021/04/26 06:50:18;;;;;;;3.17;2.03;;;9.70;99.90;;;;;;4988220;28;20494;-49
2021/04/26 06:52:45;;;;;;;5.60;2.20;;;10.00;99.90;;;;;;4995384;28;20319;-48
2021/04/26 06:55:13;;;;;;;2.07;1.70;;;9.90;99.90;;;;;;4995260;28;20637;-48
2021/04/26 06:57:41;;;;;;;6.50;2.33;;;10.10;99.90;;;;;;4989559;28;20238;-48
2021/04/26 07:00:11;;;;;;;3.67;2.10;;;10.20;99.90;;;;;;4982446;28;20704;-48
2021/04/26 07:02:39;;;;;;;3.90;2.40;;;10.30;99.90;;;;;;4978434;28;20247;-48
2021/04/26 07:05:09;;;;;;;5.73;2.30;;;10.30;99.90;;;;;;4989936;28;20234;-49
2021/04/26 07:07:37;;;;;;;6.00;2.03;;;10.50;99.90;;;;;;4988246;28;20682;-49
2021/04/26 07:10:06;;;;;;;6.00;2.00;;;10.60;99.90;;;;;;4986450;28;20242;-48
2021/04/26 07:12:34;;;;;;;3.43;1.90;;;10.50;99.90;;;;;;4990886;28;20659;-48
2021/04/26 07:15:03;;;;;;;2.90;1.80;;;10.50;99.90;;;;;;4969845;28;20326;-48
2021/04/26 07:17:31;;;;;;;3.33;1.83;;;10.70;99.90;;;;;;4969620;28;20318;-48
2021/04/26 07:19:58;;;;;;;5.47;1.80;;;10.70;99.90;;;;;;4972204;28;20755;-48
2021/04/26 07:22:27;;;;;;;3.07;1.80;;;10.90;99.90;;;;;;4987211;28;20249;-49
2021/04/26 07:24:54;;;;;;;3.07;1.83;;;11.10;99.90;;;;;;4987113;28;20272;-48
2021/04/26 07:27:22;;;;;;;4.27;2.00;;;11.40;99.90;;;;;;4977670;28;20268;-48
2021/04/26 07:29:49;;;;;;;2.83;1.80;;;11.60;99.90;;;;;;4982270;28;20289;-48
2021/04/26 07:32:17;;;;;;;2.83;1.50;;;11.70;99.90;;;;;;4982065;28;20332;-49
2021/04/26 07:34:45;;;;;;;4.50;1.77;;;11.90;99.90;;;;;;4969900;28;20624;-49
2021/04/26 07:37:12;;;;;;;4.30;1.50;;;12.10;99.90;;;;;;4970593;28;20268;-48
2021/04/26 07:39:40;;;;;;;4.77;2.23;;;12.30;99.90;;;;;;4988345;28;20249;-48
2021/04/26 07:42:08;;;;;;;3.60;1.70;;;12.20;99.90;;;;;;4970628;28;20240;-49
2021/04/26 07:44:36;;;;;;;2.93;1.70;;;12.40;99.90;;;;;;4985779;28;20722;-48
2021/04/26 07:47:04;;;;;;;4.33;2.30;;;12.50;99.90;;;;;;4999556;28;20244;-49
2021/04/26 07:49:32;;;;;;;4.27;1.80;;;12.60;99.90;;;;;;4990858;28;20235;-48
2021/04/26 07:52:01;;;;;;;2.60;1.60;;;12.80;99.90;;;;;;4991927;28;20261;-49
2021/04/26 07:54:28;;;;;;;7.57;1.80;;;13.20;99.90;;;;;;4989377;28;20298;-48
2021/04/26 07:56:55;;;;;;;3.27;1.80;;;13.40;99.90;;;;;;4988581;28;20256;-49
2021/04/26 07:59:23;;;;;;;6.47;1.70;;;13.60;99.90;;;;;;4988499;28;20240;-49
2021/04/26 08:01:50;;;;;;;4.30;1.50;;;13.20;99.90;;;;;;4973284;28;20244;-49
2021/04/26 08:04:18;;;;;;;3.30;1.23;;;13.00;99.40;;;;;;4954844;28;20329;-49
2021/04/26 08:06:46;;;;;;;3.93;1.33;;;12.70;99.90;;;;;;4965451;28;20237;-49
2021/04/26 08:09:14;;;;;;;4.33;1.27;;;12.90;99.90;;;;;;4969306;28;20249;-50
2021/04/26 08:11:41;;;;;;;2.60;1.17;;;13.00;99.40;;;;;;4952360;28;20238;-50
2021/04/26 08:14:08;;;;;;;2.13;0.90;;;13.10;98.70;;;;;;4950518;28;20242;-49
2021/04/26 08:16:36;;;;;;;1.83;1.00;;;13.00;97.60;;;;;;4964415;28;20288;-48
2021/04/26 08:19:04;;;;;;;2.97;1.40;;;13.00;97.20;;;;;;4958278;28;20257;-49
2021/04/26 08:21:31;;;;;;;2.67;1.10;;;12.70;97.80;;;;;;4968047;28;20709;-48
2021/04/26 08:23:59;;;;;;;3.90;1.10;;;12.60;98.00;;;;;;4969164;28;20280;-49
2021/04/26 08:26:27;;;;;;;1.80;0.90;;;12.60;98.20;;;;;;4954379;28;20722;-49
2021/04/26 08:28:54;;;;;;;3.20;1.37;;;13.30;99.40;;;;;;4949359;28;20698;-48
2021/04/26 08:31:21;;;;;;;3.07;1.17;;;13.60;95.70;;;;;;4977540;28;20238;-48
2021/04/26 08:33:49;;;;;;;1.37;0.90;;;13.70;96.80;;;;;;4988450;28;20244;-49
2021/04/26 08:36:17;;;;;;;4.10;1.30;;;14.10;97.10;;;;;;4987815;28;20702;-48
2021/04/26 08:38:44;;;;;;;3.00;1.17;;;14.00;95.90;;;;;;4988226;28;20249;-49
2021/04/26 08:41:14;;;;;;;3.27;1.10;;;14.60;96.80;;;;;;4975312;28;20242;-48
2021/04/26 08:43:43;;;;;;;2.07;0.87;;;15.00;92.90;;;;;;4976331;28;20989;-49
2021/04/26 08:46:10;;;;;;;3.20;1.10;;;14.80;92.50;;;;;;4980755;28;20325;-48
2021/04/26 08:48:38;;;;;;;2.20;1.00;;;14.20;91.40;;;;;;4998345;28;20310;-48
2021/04/26 08:51:06;;;;;;;1.33;0.90;;;13.70;90.80;;;;;;4999278;28;20233;-48
2021/04/26 08:53:34;;;;;;;1.37;0.80;;;14.00;93.90;;;;;;5007959;28;20636;-48
2021/04/26 08:56:05;;;;;;;1.53;1.13;;;13.70;91.00;;;;;;4994631;28;20324;-48
2021/04/26 08:58:34;;;;;;;1.70;0.90;;;12.80;91.30;;;;;;4985255;28;20494;-48
2021/04/26 09:01:01;;;;;;;1.93;1.10;;;12.30;93.30;;;;;;4974091;28;20261;-48
2021/04/26 09:03:33;;;;;;;1.43;0.93;;;11.90;93.10;;;;;;4968500;28;20581;-49
2021/04/26 09:06:01;;;;;;;1.40;1.00;;;11.70;94.50;;;;;;4964498;28;20243;-49
2021/04/26 09:08:29;;;;;;;2.13;1.10;;;11.70;95.60;;;;;;4977356;28;20247;-48
2021/04/26 09:11:03;;;;;;;1.60;0.80;;;12.30;96.70;;;;;;4971058;28;20242;-48
2021/04/26 09:13:35;;;;;;;2.23;1.10;;;13.30;93.20;;;;;;4970753;28;20515;-48
2021/04/26 09:16:07;;;;;;;2.43;1.10;;;14.60;93.60;;;;;;4971417;28;20999;-48
2021/04/26 09:18:53;;;;;;;2.17;1.00;;;15.30;88.50;;;;;;4968233;28;20265;-49
2021/04/26 09:21:26;;;;;;;3.10;1.13;;;16.00;80.90;;;;;;4973114;28;20265;-49
2021/04/26 09:24:18;;;;;;;2.20;1.03;;;16.00;79.00;;;;;;4974483;28;20640;-49
2021/04/26 09:26:47;;;;;;;2.17;0.90;;;15.90;78.30;;;;;;4975582;28;20677;-49
2021/04/26 09:29:22;;;;;;;1.50;1.23;;;15.10;81.20;;;;;;4972835;28;20737;-48
2021/04/26 09:32:06;;;;;;;2.67;1.00;;;14.10;80.50;;;;;;4958076;28;20325;-49
2021/04/26 09:34:38;;;;;;;1.53;1.30;;;13.80;84.80;;;;;;4958496;28;20654;-48
2021/04/26 09:37:17;;;;;;;1.57;0.90;;;13.80;85.70;;;;;;4955541;28;20251;-48
2021/04/26 09:40:05;;;;;;;8.87;1.30;;;13.70;86.00;;;;;;4954898;28;20253;-49
2021/04/26 09:42:44;;;;;;;3.53;0.90;;;13.50;83.60;;;;;;4953400;28;20231;-48
2021/04/26 09:45:21;;;;;;;2.80;1.13;;;13.10;86.00;;;;;;4953267;28;20340;-48
2021/04/26 09:48:02;;;;;;;2.40;1.13;;;13.00;84.00;;;;;;4956493;28;20238;-48
2021/04/26 09:50:30;;;;;;;2.40;1.10;;;13.90;86.20;;;;;;4961161;28;20237;-48
2021/04/26 09:53:08;;;;;;;1.93;0.90;;;15.00;84.70;;;;;;4971531;28;20289;-48
2021/04/26 09:55:36;;;;;;;1.70;0.97;;;15.60;82.80;;;;;;4951006;28;20231;-48
2021/04/26 09:58:04;;;;;;;2.47;0.90;;;15.90;81.30;;;;;;4952679;28;20255;-49
2021/04/26 10:00:33;;;;;;;3.30;1.00;;;15.90;79.90;;;;;;4952520;28;20254;-48
2021/04/26 10:03:01;;;;;;;2.57;1.00;;;16.00;79.60;;;;;;4954161;28;20269;-48
2021/04/26 10:05:29;;;;;;;2.73;0.90;;;15.90;76.70;;;;;;4951991;28;20254;-48
2021/04/26 10:07:58;;;;;;;2.20;1.10;;;16.00;76.50;;;;;;4956564;28;20283;-48
2021/04/26 10:10:26;;;;;;;1.00;0.90;;;15.90;76.60;;;;;;4955343;28;20626;-49
2021/04/26 10:12:53;;;;;;;1.83;1.00;;;15.70;75.40;;;;;;4953792;28;20315;-48
2021/04/26 10:15:26;;;;;;;3.30;1.00;;;15.00;77.50;;;;;;4952723;28;20239;-48
2021/04/26 10:17:58;;;;;;;2.40;1.10;;;14.20;77.30;;;;;;4957095;28;20600;-48
2021/04/26 10:20:37;;;;;;;1.93;1.07;;;13.80;77.70;;;;;;4955113;28;20673;-48
2021/04/26 10:23:36;;;;;;;1.40;0.90;;;13.90;81.80;;;;;;4949703;28;20710;-48
2021/04/26 10:26:39;;;;;;;1.97;1.10;;;14.20;79.10;;;;;;4963584;28;20272;-48
2021/04/26 10:29:14;;;;;;;1.33;1.00;;;13.80;78.40;;;;;;4970958;28;20265;-48
2021/04/26 10:32:08;;;;;;;1.63;0.90;;;13.30;79.20;;;;;;4968353;28;20313;-48
2021/04/26 10:35:10;;;;;;;1.10;0.97;;;13.30;80.10;;;;;;4971823;28;20719;-48
2021/04/26 10:37:39;;;;;;;2.03;1.10;;;13.20;77.90;;;;;;4972474;28;20234;-48
2021/04/26 10:40:18;;;;;;;5.23;1.10;;;13.10;76.60;;;;;;4970820;28;20300;-48
2021/04/26 10:42:49;;;;;;;1.57;1.00;;;13.70;80.10;;;;;;4972174;28;20266;-47
2021/04/26 10:45:28;;;;;;;2.70;1.10;;;14.00;75.50;;;;;;4972833;28;20235;-48
2021/04/26 10:48:23;;;;;;;4.63;1.23;;;14.10;76.80;;;;;;4972694;28;20348;-48
2021/04/26 10:50:52;;;;;;;2.53;1.10;;;14.10;76.40;;;;;;4974961;28;20242;-49
2021/04/26 10:53:21;;;;;;;2.87;1.20;;;14.10;77.10;;;;;;4972519;28;20736;-48
2021/04/26 10:56:24;;;;;;;2.63;1.10;;;13.80;78.10;;;;;;4973220;28;20252;-48
2021/04/26 10:59:25;;;;;;;1.10;0.90;;;13.50;79.00;;;;;;4973315;28;20610;-47
2021/04/26 11:01:53;;;;;;;2.37;1.10;;;13.20;79.20;;;;;;4972667;28;20301;-48
2021/04/26 11:04:20;;;;;;;2.20;1.13;;;12.90;78.90;;;;;;4968238;28;20353;-48
2021/04/26 11:07:03;;;;;;;1.50;1.00;;;12.80;80.40;;;;;;4974636;28;20743;-48
2021/04/26 11:09:35;;;;;;;2.47;1.30;;;13.00;81.10;;;;;;4968439;28;20950;-48
2021/04/26 11:12:05;;;;;;;2.87;1.20;;;13.40;83.50;;;;;;4970652;28;20324;-48
2021/04/26 11:14:33;;;;;;;2.17;1.00;;;13.70;79.00;;;;;;4970177;28;20239;-49
2021/04/26 11:17:08;;;;;;;1.57;1.00;;;14.10;80.50;;;;;;4975847;28;20429;-48
2021/04/26 11:20:11;;;;;;;1.83;1.00;;;14.10;79.70;;;;;;4968852;28;20241;-49
2021/04/26 11:22:40;;;;;;;1.83;1.00;;;14.40;80.70;;;;;;4968523;28;20244;-48
2021/04/26 11:25:09;;;;;;;3.10;1.00;;;15.00;79.40;;;;;;4972445;28;20582;-48
2021/04/26 11:27:55;;;;;;;2.43;1.00;;;15.50;77.60;;;;;;4973558;28;20305;-48
2021/04/26 11:30:32;;;;;;;1.00;0.90;;;15.80;75.20;;;;;;4981642;28;20257;-48
2021/04/26 11:33:19;;;;;;;1.60;1.37;;;16.10;74.20;;;;;;4987533;28;20238;-48
2021/04/26 11:36:17;;;;;;;2.40;1.10;;;16.30;74.30;;;;;;4985078;28;20230;-49
2021/04/26 11:38:47;;;;;;;1.33;1.07;;;16.40;73.80;;;;;;4982367;28;20234;-48
2021/04/26 11:41:15;;;;;;;2.83;1.20;;;16.40;72.70;;;;;;4995374;28;20312;-48
2021/04/26 11:43:49;;;;;;;4.93;1.40;;;16.50;72.40;;;;;;4995234;28;20261;-49
2021/04/26 11:46:30;;;;;;;2.97;1.10;;;16.80;71.00;;;;;;4976231;28;20288;-48
2021/04/26 11:49:19;;;;;;;3.40;1.00;;;17.20;69.70;;;;;;4972237;28;20261;-48
2021/04/26 11:51:50;;;;;;;1.90;1.20;;;17.70;69.30;;;;;;4978844;28;20273;-48
2021/04/26 11:54:21;;;;;;;2.73;1.00;;;17.70;70.20;;;;;;4977502;28;20246;-48
2021/04/26 11:57:04;;;;;;;1.97;1.27;;;17.70;70.60;;;;;;4977690;28;20234;-48
2021/04/26 11:59:32;;;;;;;2.60;1.10;;;17.00;68.60;;;;;;4973197;28;20243;-49
2021/04/26 12:02:00;;;;;;;1.83;1.10;;;16.70;71.60;;;;;;4973191;28;20239;-48
2021/04/26 12:04:37;;;;;;;4.93;1.20;;;16.80;71.10;;;;;;4967706;28;20239;-48
2021/04/26 12:07:08;;;;;;;1.30;1.00;;;16.90;70.10;;;;;;4967604;28;20253;-48
2021/04/26 12:09:37;;;;;;;1.50;1.17;;;16.60;70.50;;;;;;4965493;28;20537;-48
2021/04/26 12:12:07;;;;;;;1.60;1.10;;;16.70;70.40;;;;;;4966678;28;20699;-49
2021/04/26 12:14:35;;;;;;;2.50;1.00;;;16.50;70.00;;;;;;4965692;28;20256;-48
2021/04/26 12:17:19;;;;;;;1.80;1.20;;;16.50;71.70;;;;;;4965962;28;20248;-48
2021/04/26 12:19:48;;;;;;;2.40;1.00;;;16.60;69.30;;;;;;4976230;28;20238;-48
2021/04/26 12:22:16;;;;;;;2.93;1.90;;;16.70;71.50;;;;;;4966732;28;20335;-49
2021/04/26 12:24:44;;;;;;;2.80;1.40;;;16.80;71.60;;;;;;4968936;28;20240;-48
2021/04/26 12:27:14;;;;;;;3.30;1.10;;;17.00;71.20;;;;;;4968929;28;20240;-48
2021/04/26 12:29:43;;;;;;;4.10;1.17;;;16.60;68.10;;;;;;4969905;28;20239;-48
2021/04/26 12:32:13;;;;;;;1.97;1.10;;;16.60;70.90;;;;;;4969173;28;20252;-48
2021/04/26 12:34:56;;;;;;;1.40;1.20;;;16.10;68.30;;;;;;4986985;28;20236;-48
2021/04/26 12:37:26;;;;;;;2.00;1.20;;;15.40;69.70;;;;;;4993394;28;20241;-48
2021/04/26 12:40:17;;;;;;;1.50;1.20;;;15.30;74.30;;;;;;4991685;28;20234;-48
2021/04/26 12:42:48;;;;;;;1.93;1.50;;;15.10;71.40;;;;;;4968836;28;20595;-49
2021/04/26 12:45:21;;;;;;;2.23;1.30;;;14.90;72.30;;;;;;4972140;28;20594;-48
2021/04/26 12:47:55;;;;;;;3.80;1.80;;;14.90;74.50;;;;;;4970992;28;20254;-49
2021/04/26 12:50:29;;;;;;;1.90;1.50;;;14.90;73.70;;;;;;4971692;28;20238;-49
2021/04/26 12:53:11;;;;;;;1.83;1.20;;;14.90;73.10;;;;;;4973019;28;20254;-48
2021/04/26 12:55:49;;;;;;;1.53;1.17;;;14.80;74.70;;;;;;4978970;28;20693;-48
2021/04/26 12:58:20;;;;;;;2.03;1.43;;;14.90;72.40;;;;;;4992033;28;20296;-48
2021/04/26 13:00:52;;;;;;;2.70;1.10;;;15.00;72.80;;;;;;4991024;28;20248;-48
2021/04/26 13:03:31;;;;;;;4.03;1.63;;;14.70;72.10;;;;;;4986988;28;20258;-48
2021/04/26 13:06:02;;;;;;;1.40;1.30;;;14.30;73.30;;;;;;4971810;28;20230;-48
2021/04/26 13:08:32;;;;;;;2.07;1.30;;;14.00;75.10;;;;;;4972059;28;20241;-48
2021/04/26 13:11:03;;;;;;;2.30;1.27;;;14.00;73.70;;;;;;4972069;28;20321;-48
2021/04/26 13:13:30;;;;;;;3.27;1.37;;;14.10;73.50;;;;;;4982905;28;20245;-48
2021/04/26 13:15:59;;;;;;;1.40;1.20;;;13.90;74.30;;;;;;4988394;28;20241;-48
2021/04/26 13:18:27;;;;;;;1.80;1.40;;;13.80;74.20;;;;;;4970323;28;20242;-49
2021/04/26 13:21:08;;;;;;;2.83;1.40;;;13.80;77.40;;;;;;4976669;28;20242;-48
2021/04/26 13:23:37;;;;;;;2.37;1.30;;;13.90;73.70;;;;;;4986695;28;20225;-48